Time;durP1;ratioP1;P1;durP2;ratioP2;P2;SDS_P1;SDS_P2;PMS_P1;PMS_P2;Temp;Humidity;BMP_temperature;BMP_pressure;BME280_temperature;BME280_humidity;BME280_pressure;Samples;Min_cycle;Max_cycle;Signal;HPM_P1;HPM_P2
2021/12/19 00:01:37;;;;;;;18.65;8.50;;;7.50;99.90;;;;;;5039023;28;20067;-83
2021/12/19 00:09:32;;;;;;;17.67;8.25;;;7.40;99.90;;;;;;5011216;28;231829;-83
2021/12/19 00:12:02;;;;;;;18.33;9.02;;;7.40;99.90;;;;;;5025072;28;20060;-83
2021/12/19 00:14:28;;;;;;;19.05;9.07;;;7.50;99.90;;;;;;5005773;28;250672;-83
2021/12/19 00:16:55;;;;;;;20.85;9.45;;;7.50;99.90;;;;;;5033278;28;20152;-83
2021/12/19 00:19:22;;;;;;;20.65;10.02;;;7.50;99.90;;;;;;4908542;28;3002739;-84
2021/12/19 00:21:48;;;;;;;23.25;10.00;;;7.50;99.90;;;;;;5043532;28;20061;-84
2021/12/19 00:24:18;;;;;;;32.33;10.50;;;7.40;99.90;;;;;;5012945;28;219508;-83
2021/12/19 00:26:48;;;;;;;25.45;10.40;;;7.50;99.90;;;;;;5042570;28;20446;-83
2021/12/19 00:29:15;;;;;;;23.80;11.02;;;7.50;99.90;;;;;;5003391;28;20052;-82
2021/12/19 00:31:43;;;;;;;27.15;10.90;;;7.50;99.90;;;;;;5039995;28;20140;-83
2021/12/19 00:34:14;;;;;;;25.60;11.68;;;7.50;99.90;;;;;;4999509;28;87767;-83
2021/12/19 00:36:46;;;;;;;30.48;12.65;;;7.50;99.90;;;;;;5042586;28;20045;-83
2021/12/19 00:39:13;;;;;;;30.20;12.32;;;7.50;99.90;;;;;;5011201;28;170680;-82
2021/12/19 00:41:42;;;;;;;30.48;12.48;;;7.50;99.90;;;;;;5014923;28;20446;-83
2021/12/19 00:44:14;;;;;;;30.23;12.77;;;7.50;99.90;;;;;;5015639;28;123405;-84
2021/12/19 00:46:49;;;;;;;30.20;12.48;;;7.50;99.90;;;;;;5012079;28;20060;-84
2021/12/19 00:49:17;;;;;;;28.20;12.18;;;7.50;99.90;;;;;;5016355;28;91703;-82
2021/12/19 00:51:44;;;;;;;26.38;12.75;;;7.50;99.90;;;;;;5011947;28;20041;-83
2021/12/19 00:54:12;;;;;;;26.02;11.45;;;7.50;99.90;;;;;;5019872;28;206172;-82
2021/12/19 00:56:42;;;;;;;28.73;11.73;;;7.50;99.90;;;;;;5030957;28;20053;-82
2021/12/19 00:59:09;;;;;;;24.92;10.80;;;7.60;99.90;;;;;;5012580;28;265177;-82
2021/12/19 01:01:37;;;;;;;21.75;10.68;;;7.50;99.90;;;;;;5030477;28;20072;-84
2021/12/19 01:04:10;;;;;;;21.38;10.13;;;7.50;99.90;;;;;;5013583;28;123536;-84
2021/12/19 01:06:38;;;;;;;22.80;9.73;;;7.50;99.90;;;;;;5037712;28;20053;-81
2021/12/19 01:09:06;;;;;;;19.70;8.82;;;7.50;99.90;;;;;;5022867;28;249133;-83
2021/12/19 01:11:33;;;;;;;18.80;8.25;;;7.50;99.90;;;;;;5035811;28;20053;-84
2021/12/19 01:14:01;;;;;;;19.13;7.87;;;7.50;99.90;;;;;;5006730;28;272175;-83
2021/12/19 01:16:31;;;;;;;23.60;7.03;;;7.50;99.90;;;;;;5025557;28;20068;-82
2021/12/19 01:18:58;;;;;;;13.23;6.10;;;7.50;99.90;;;;;;4907680;28;3000091;-82
2021/12/19 01:21:24;;;;;;;10.15;3.88;;;7.50;99.90;;;;;;5028205;28;20057;-82
2021/12/19 01:23:50;;;;;;;9.77;3.28;;;7.50;99.90;;;;;;5007143;28;273269;-83
2021/12/19 01:26:17;;;;;;;8.95;2.70;;;7.40;99.90;;;;;;5040000;28;20064;-82
2021/12/19 01:28:43;;;;;;;7.70;2.03;;;7.40;99.90;;;;;;5023534;28;20466;-84
2021/12/19 01:31:10;;;;;;;8.52;1.90;;;7.50;99.90;;;;;;4988019;28;272314;-83
2021/12/19 01:33:37;;;;;;;7.07;1.92;;;7.40;99.90;;;;;;5025473;28;20065;-83
2021/12/19 01:36:05;;;;;;;8.52;2.50;;;7.40;99.90;;;;;;5010571;28;84049;-82
2021/12/19 01:38:31;;;;;;;8.63;1.70;;;7.40;99.90;;;;;;5020899;28;20058;-82
2021/12/19 01:40:57;;;;;;;8.45;1.90;;;7.40;99.90;;;;;;5017251;28;258769;-82
2021/12/19 01:43:25;;;;;;;8.80;1.90;;;7.30;99.90;;;;;;5021678;28;20518;-81
2021/12/19 01:45:53;;;;;;;10.55;2.17;;;7.40;99.90;;;;;;5007347;28;255050;-81
2021/12/19 01:48:21;;;;;;;9.27;2.00;;;7.30;99.90;;;;;;5020300;28;20136;-81
2021/12/19 01:50:48;;;;;;;8.07;1.75;;;7.40;99.90;;;;;;5021295;28;86766;-82
2021/12/19 01:53:18;;;;;;;8.38;1.73;;;7.30;99.90;;;;;;5036354;28;20049;-83
2021/12/19 01:55:45;;;;;;;6.70;1.80;;;7.40;99.90;;;;;;4928557;28;2969747;-83
2021/12/19 01:58:12;;;;;;;10.05;1.80;;;7.30;99.90;;;;;;5024572;28;20050;-81
2021/12/19 02:00:42;;;;;;;7.00;1.63;;;7.30;99.90;;;;;;4923891;28;2995237;-82
2021/12/19 02:03:12;;;;;;;8.93;1.83;;;7.40;99.90;;;;;;5030167;28;20418;-81
2021/12/19 02:05:39;;;;;;;8.27;1.58;;;7.30;99.90;;;;;;4997407;28;92804;-81
2021/12/19 02:08:09;;;;;;;8.68;1.73;;;7.30;99.90;;;;;;5022343;28;20113;-80
2021/12/19 02:10:36;;;;;;;7.07;1.55;;;7.30;99.90;;;;;;4930922;28;2998419;-80
2021/12/19 02:13:04;;;;;;;7.00;1.60;;;7.30;99.90;;;;;;5025804;28;20419;-81
2021/12/19 02:15:34;;;;;;;9.50;2.15;;;7.30;99.90;;;;;;5008634;28;200217;-81
2021/12/19 02:18:06;;;;;;;9.48;2.20;;;7.30;99.90;;;;;;5038202;28;20060;-81
2021/12/19 02:20:39;;;;;;;;;;;7.30;99.90;;;;;;5017085;28;71313;-81
2021/12/19 02:23:05;;;;;;;9.25;2.10;;;7.30;99.90;;;;;;5023877;28;19932;-81
2021/12/19 02:25:32;;;;;;;6.25;1.40;;;7.20;99.90;;;;;;4908554;28;3005365;-81
2021/12/19 02:27:58;;;;;;;7.03;1.50;;;7.20;99.90;;;;;;5019867;28;20140;-81
2021/12/19 02:30:26;;;;;;;7.15;1.80;;;7.20;99.90;;;;;;5016829;28;135830;-81
2021/12/19 02:32:52;;;;;;;7.70;1.67;;;7.20;99.90;;;;;;5039382;28;20530;-81
2021/12/19 02:35:24;;;;;;;9.43;1.73;;;7.20;99.90;;;;;;5017419;28;20048;-81
2021/12/19 02:48:35;;;;;;;7.68;2.13;;;7.20;99.90;;;;;;5021520;28;20510;-82
2021/12/19 02:51:02;;;;;;;9.63;2.35;;;7.20;99.90;;;;;;4993249;28;110228;-82
2021/12/19 02:53:34;;;;;;;8.52;2.08;;;7.20;99.90;;;;;;5022098;28;20046;-81
2021/12/19 02:56:04;;;;;;;10.23;2.50;;;7.20;99.90;;;;;;5023628;28;141158;-82
2021/12/19 02:58:30;;;;;;;7.97;2.22;;;7.20;99.90;;;;;;5009323;28;20060;-81
2021/12/19 03:01:01;;;;;;;8.20;2.17;;;7.20;99.90;;;;;;5018958;28;265260;-82
2021/12/19 03:03:30;;;;;;;8.00;2.13;;;7.20;99.90;;;;;;5003198;28;20064;-81
2021/12/19 03:05:57;;;;;;;8.45;2.30;;;7.20;99.90;;;;;;5007112;28;264235;-81
2021/12/19 03:08:26;;;;;;;6.93;1.80;;;7.10;99.90;;;;;;5028457;28;20042;-81
2021/12/19 03:11:37;;;;;;;7.75;1.42;;;7.10;99.90;;;;;;5025754;28;20129;-81
2021/12/19 03:19:20;;;;;;;4.65;1.10;;;7.00;99.90;;;;;;5008920;28;261927;-80
2021/12/19 03:21:47;;;;;;;5.53;1.10;;;7.00;99.90;;;;;;5036051;28;20081;-81
2021/12/19 03:24:13;;;;;;;4.57;0.80;;;6.90;99.90;;;;;;5003234;28;249028;-81
2021/12/19 03:26:39;;;;;;;6.93;0.95;;;7.00;99.90;;;;;;5027750;28;20029;-81
2021/12/19 03:29:05;;;;;;;5.15;1.00;;;6.90;99.90;;;;;;4989197;28;255179;-81
2021/12/19 03:31:32;;;;;;;4.85;1.00;;;7.00;99.90;;;;;;5022699;28;20045;-81
2021/12/19 03:33:59;;;;;;;3.73;0.90;;;7.00;99.90;;;;;;5007736;28;254128;-82
2021/12/19 03:36:28;;;;;;;5.28;1.00;;;7.00;99.90;;;;;;5008972;28;20053;-80
2021/12/19 03:38:58;;;;;;;5.95;0.90;;;7.00;99.90;;;;;;5006342;28;265088;-80
2021/12/19 03:41:33;;;;;;;5.20;0.85;;;7.00;99.90;;;;;;5032948;28;20046;-81
2021/12/19 03:44:05;;;;;;;3.80;0.90;;;7.00;99.90;;;;;;5024757;28;258789;-82
2021/12/19 03:46:35;;;;;;;;;;;7.00;99.90;;;;;;5023051;28;20065;-81
2021/12/19 03:49:04;;;;;;;4.43;0.70;;;7.00;99.90;;;;;;5006827;28;226000;-81
2021/12/19 03:51:31;;;;;;;3.72;0.90;;;7.00;99.90;;;;;;5029752;28;20072;-81
2021/12/19 03:54:00;;;;;;;5.55;1.00;;;6.90;99.90;;;;;;5016142;28;256833;-81
2021/12/19 03:56:26;;;;;;;2.20;0.60;;;7.00;99.90;;;;;;5036572;28;20049;-82
2021/12/19 03:58:53;;;;;;;5.15;0.90;;;6.90;99.90;;;;;;5016642;28;266482;-80
2021/12/19 04:01:22;;;;;;;4.93;1.00;;;6.90;99.90;;;;;;5043303;28;20060;-81
2021/12/19 04:03:48;;;;;;;6.90;1.17;;;6.90;99.90;;;;;;5007306;28;264270;-81
2021/12/19 04:06:15;;;;;;;6.13;1.20;;;6.90;99.90;;;;;;4992670;28;105867;-81
2021/12/19 04:08:44;;;;;;;5.97;0.98;;;6.90;99.90;;;;;;5022539;28;20050;-80
2021/12/19 04:11:10;;;;;;;7.68;1.08;;;6.90;99.90;;;;;;5006049;28;92995;-79
2021/12/19 04:13:37;;;;;;;8.85;1.77;;;6.80;99.90;;;;;;5023704;28;20076;-81
2021/12/19 04:16:03;;;;;;;8.52;1.83;;;6.80;99.90;;;;;;5020529;28;249083;-82
2021/12/19 04:18:29;;;;;;;8.50;2.13;;;6.80;99.90;;;;;;5020604;28;20058;-80
2021/12/19 04:20:59;;;;;;;9.98;2.70;;;6.80;99.90;;;;;;5004321;28;223749;-80
2021/12/19 04:23:30;;;;;;;9.50;2.75;;;6.80;99.90;;;;;;5023164;28;20045;-81
2021/12/19 04:25:57;;;;;;;9.00;2.30;;;6.80;99.90;;;;;;5017027;28;263726;-81
2021/12/19 04:28:26;;;;;;;11.27;2.45;;;6.80;99.90;;;;;;5038545;28;20404;-81
2021/12/19 04:30:52;;;;;;;12.45;2.53;;;6.80;99.90;;;;;;5016812;28;25163;-81
2021/12/19 04:33:21;;;;;;;10.77;2.78;;;6.80;99.90;;;;;;5019984;28;20046;-80
2021/12/19 04:35:48;;;;;;;14.45;3.03;;;6.80;99.90;;;;;;5000930;28;127356;-81
2021/12/19 04:41:21;;;;;;;13.23;3.35;;;6.80;99.90;;;;;;4921990;28;3001798;-81
2021/12/19 04:57:36;;;;;;;12.50;3.42;;;6.80;99.90;;;;;;5025518;28;20033;-81
2021/12/19 05:00:12;;;;;;;14.98;3.50;;;6.80;99.90;;;;;;5032906;28;112040;-80
2021/12/19 05:05:49;;;;;;;12.48;3.83;;;6.90;99.90;;;;;;4999548;28;262737;-82
2021/12/19 05:17:10;;;;;;;16.50;4.38;;;6.90;99.90;;;;;;4949008;28;20061;-82
2021/12/19 05:20:04;;;;;;;18.00;5.03;;;6.90;99.90;;;;;;4955426;28;276407;-82
2021/12/19 05:22:34;;;;;;;16.33;4.85;;;6.90;99.90;;;;;;4965916;28;20054;-82
2021/12/19 05:25:08;;;;;;;16.30;4.53;;;6.90;99.90;;;;;;4937692;28;208999;-82
2021/12/19 05:27:34;;;;;;;20.88;5.38;;;6.90;99.90;;;;;;4953293;28;20298;-81
2021/12/19 05:30:00;;;;;;;17.63;4.82;;;6.90;99.90;;;;;;4949314;28;224174;-81
2021/12/19 05:32:26;;;;;;;21.10;5.43;;;6.90;99.90;;;;;;4970468;28;20066;-83
2021/12/19 05:34:54;;;;;;;17.48;5.40;;;7.00;99.90;;;;;;4922002;28;136499;-82
2021/12/19 05:45:39;;;;;;;26.58;7.05;;;7.00;99.90;;;;;;4946381;28;70176;-81
2021/12/19 05:48:05;;;;;;;26.70;8.48;;;7.00;99.90;;;;;;5020073;28;20064;-82
2021/12/19 05:50:31;;;;;;;17.77;7.70;;;7.00;99.90;;;;;;5011509;28;252872;-81
2021/12/19 05:53:00;;;;;;;28.20;9.23;;;7.10;99.90;;;;;;5022347;28;20624;-82
2021/12/19 05:55:26;;;;;;;25.75;10.25;;;7.10;99.90;;;;;;5013795;28;269740;-81
2021/12/19 05:57:52;;;;;;;25.77;10.70;;;7.10;99.90;;;;;;5028796;28;20064;-82
2021/12/19 06:00:19;;;;;;;26.67;11.20;;;7.10;99.90;;;;;;5027184;28;143889;-81
2021/12/19 06:02:48;;;;;;;26.58;10.45;;;7.10;99.90;;;;;;5018495;28;20064;-83
2021/12/19 06:05:16;;;;;;;34.42;12.55;;;7.20;99.90;;;;;;4988958;28;212544;-83
2021/12/19 06:07:43;;;;;;;30.15;11.60;;;7.20;99.90;;;;;;5023215;28;20045;-81
2021/12/19 06:10:11;;;;;;;31.48;10.95;;;7.20;99.90;;;;;;5001109;28;40698;-81
2021/12/19 06:12:37;;;;;;;30.65;11.18;;;7.20;99.90;;;;;;5026784;28;20384;-82
2021/12/19 06:15:09;;;;;;;30.88;11.70;;;7.20;99.90;;;;;;4993572;28;186091;-82
2021/12/19 06:17:42;;;;;;;30.10;10.68;;;7.20;99.90;;;;;;5018816;28;20049;-81
2021/12/19 06:20:10;;;;;;;28.65;11.25;;;7.20;99.90;;;;;;5018325;28;261140;-82
2021/12/19 06:22:36;;;;;;;33.17;9.02;;;7.20;99.90;;;;;;5026466;28;20478;-81
2021/12/19 06:25:04;;;;;;;25.60;9.55;;;7.20;99.90;;;;;;5012537;28;255507;-81
2021/12/19 06:27:30;;;;;;;29.95;9.63;;;7.20;99.90;;;;;;5035050;28;20053;-81
2021/12/19 06:29:56;;;;;;;27.80;8.20;;;7.20;99.90;;;;;;5006118;23;205380;-68
2021/12/19 06:32:23;;;;;;;26.58;8.05;;;7.20;99.90;;;;;;5025244;28;20053;-69
2021/12/19 06:34:49;;;;;;;28.70;8.73;;;7.20;99.90;;;;;;5002971;28;80201;-68
2021/12/19 06:37:15;;;;;;;29.98;8.43;;;7.20;99.90;;;;;;5020739;28;20060;-68
2021/12/19 06:39:41;;;;;;;22.70;7.25;;;7.20;99.90;;;;;;5019315;28;263961;-68
2021/12/19 06:42:09;;;;;;;25.65;7.38;;;7.20;99.90;;;;;;5052402;28;20144;-68
2021/12/19 06:44:36;;;;;;;26.25;7.88;;;7.20;99.90;;;;;;5027116;28;26348;-67
2021/12/19 06:47:03;;;;;;;20.52;8.07;;;7.20;99.90;;;;;;5033956;28;20049;-68
2021/12/19 06:49:30;;;;;;;29.02;7.18;;;7.20;99.90;;;;;;5021805;28;262213;-69
2021/12/19 06:51:56;;;;;;;21.60;6.97;;;7.20;99.90;;;;;;5029101;28;20056;-69
2021/12/19 06:54:22;;;;;;;25.83;7.75;;;7.20;99.90;;;;;;5029531;22;255790;-80
2021/12/19 06:56:48;;;;;;;26.05;7.22;;;7.20;99.90;;;;;;5032064;28;20053;-81
2021/12/19 06:59:15;;;;;;;24.10;6.80;;;7.30;99.90;;;;;;5004770;28;175997;-81
2021/12/19 07:01:41;;;;;;;23.85;6.68;;;7.20;99.90;;;;;;5050448;28;20037;-82
2021/12/19 07:04:08;;;;;;;21.38;6.82;;;7.20;99.90;;;;;;5011356;28;111798;-81
2021/12/19 07:06:34;;;;;;;23.52;6.80;;;7.20;99.90;;;;;;5012031;28;20439;-81
2021/12/19 07:09:01;;;;;;;27.83;7.30;;;7.20;99.90;;;;;;4971161;28;255199;-81
2021/12/19 07:11:27;;;;;;;19.40;6.78;;;7.20;99.90;;;;;;5000163;28;20065;-82
2021/12/19 07:13:53;;;;;;;25.97;6.80;;;7.20;99.90;;;;;;4987056;28;260563;-81
2021/12/19 07:16:19;;;;;;;21.73;6.03;;;7.30;99.90;;;;;;5006338;28;20398;-80
2021/12/19 07:18:46;;;;;;;27.67;6.88;;;7.30;99.90;;;;;;5022269;28;20080;-81
2021/12/19 07:21:14;;;;;;;28.73;6.53;;;7.30;99.90;;;;;;4984490;28;20046;-82
2021/12/19 07:23:40;;;;;;;21.65;6.38;;;7.20;99.90;;;;;;5032170;28;20056;-81
2021/12/19 07:26:06;;;;;;;24.85;5.82;;;7.20;99.90;;;;;;4981595;28;241413;-81
2021/12/19 07:28:33;;;;;;;24.40;5.50;;;7.20;99.90;;;;;;4991144;28;20050;-82
2021/12/19 07:31:01;;;;;;;22.08;5.45;;;7.20;99.90;;;;;;5030934;28;270933;-81
2021/12/19 07:33:27;;;;;;;21.15;4.65;;;7.20;99.90;;;;;;5028528;28;20054;-81
2021/12/19 07:35:55;;;;;;;22.38;4.95;;;7.20;99.90;;;;;;5037902;28;177898;-83
2021/12/19 07:38:31;;;;;;;28.42;5.38;;;7.20;99.90;;;;;;4999908;28;20053;-82
2021/12/19 07:40:59;;;;;;;22.77;5.47;;;7.20;99.90;;;;;;5036389;28;106137;-82
2021/12/19 07:43:26;;;;;;;18.83;5.15;;;7.20;99.90;;;;;;5031795;28;20049;-82
2021/12/19 07:45:52;;;;;;;19.52;5.70;;;7.30;99.90;;;;;;5013306;28;265052;-82
2021/12/19 07:48:18;;;;;;;21.10;4.97;;;7.20;99.90;;;;;;5004555;28;20062;-82
2021/12/19 07:50:47;;;;;;;25.38;5.78;;;7.20;99.90;;;;;;5005847;28;117088;-82
2021/12/19 07:53:14;;;;;;;23.92;6.32;;;7.20;99.90;;;;;;5013976;28;20056;-80
2021/12/19 07:55:40;;;;;;;19.92;5.00;;;7.20;99.90;;;;;;4989534;28;209403;-82
2021/12/19 07:58:06;;;;;;;19.05;4.68;;;7.10;99.90;;;;;;5014323;28;20376;-81
2021/12/19 08:00:32;;;;;;;21.23;5.13;;;7.20;99.90;;;;;;5007233;28;68305;-82
2021/12/19 08:02:58;;;;;;;22.08;4.95;;;7.20;99.90;;;;;;5015584;28;20518;-81
2021/12/19 08:05:25;;;;;;;20.23;4.97;;;7.20;99.90;;;;;;4985698;28;231428;-81
2021/12/19 08:07:56;;;;;;;26.25;5.53;;;7.20;99.90;;;;;;5022712;28;20038;-82
2021/12/19 08:12:49;;;;;;;23.80;5.18;;;7.10;99.90;;;;;;5021410;28;20049;-80
2021/12/19 08:15:15;;;;;;;23.48;5.30;;;7.20;99.90;;;;;;4994093;28;20613;-81
2021/12/19 08:17:41;;;;;;;21.65;5.10;;;7.20;99.90;;;;;;5011790;28;20128;-80
2021/12/19 08:20:11;;;;;;;27.77;5.38;;;7.20;99.90;;;;;;5006430;28;258671;-81
2021/12/19 08:22:38;;;;;;;21.95;5.32;;;7.10;99.90;;;;;;5007725;28;20052;-82
2021/12/19 08:25:05;;;;;;;21.08;5.10;;;7.20;99.90;;;;;;5008037;28;254733;-81
2021/12/19 08:27:33;;;;;;;19.65;5.07;;;7.20;99.90;;;;;;5018289;28;20050;-82
2021/12/19 08:29:59;;;;;;;23.92;5.05;;;7.20;99.90;;;;;;5007037;28;193523;-83
2021/12/19 08:32:25;;;;;;;28.40;5.30;;;7.30;99.90;;;;;;5020088;28;20060;-81
2021/12/19 08:34:54;;;;;;;19.20;4.65;;;7.20;99.90;;;;;;5002880;28;234412;-81
2021/12/19 08:37:20;;;;;;;21.08;4.35;;;7.30;99.90;;;;;;5030568;28;20057;-81
2021/12/19 08:39:47;;;;;;;19.05;4.15;;;7.30;99.90;;;;;;5019116;28;78416;-78
2021/12/19 08:42:14;;;;;;;20.42;4.03;;;7.20;99.90;;;;;;5022198;28;20050;-79
2021/12/19 08:44:40;;;;;;;20.50;3.95;;;7.30;99.90;;;;;;5013137;28;259085;-80
2021/12/19 08:47:08;;;;;;;19.75;4.30;;;7.30;99.90;;;;;;5031327;28;20053;-80
2021/12/19 08:49:34;;;;;;;20.60;4.50;;;7.30;99.90;;;;;;5001366;28;168593;-81
2021/12/19 08:52:01;;;;;;;19.92;3.80;;;7.30;99.90;;;;;;5009584;28;20065;-80
2021/12/19 08:54:28;;;;;;;23.27;4.20;;;7.30;99.90;;;;;;4982397;28;75185;-80
2021/12/19 08:56:54;;;;;;;19.40;4.22;;;7.40;99.90;;;;;;5027605;28;20056;-79
2021/12/19 08:59:20;;;;;;;23.08;4.18;;;7.40;99.90;;;;;;5000997;28;173796;-81
2021/12/19 09:01:48;;;;;;;18.40;4.25;;;7.40;99.90;;;;;;5040577;28;20054;-80
2021/12/19 09:04:15;;;;;;;19.05;4.15;;;7.30;99.90;;;;;;5002475;28;120168;-81
2021/12/19 09:06:41;;;;;;;21.90;4.32;;;7.40;99.90;;;;;;5047463;28;20052;-81
2021/12/19 09:09:08;;;;;;;22.35;4.13;;;7.40;99.90;;;;;;5030169;28;265686;-80
2021/12/19 09:11:34;;;;;;;22.40;4.15;;;7.30;99.90;;;;;;5022936;28;20163;-79
2021/12/19 09:14:00;;;;;;;16.55;3.72;;;7.40;99.90;;;;;;4998583;28;296273;-80
2021/12/19 09:16:27;;;;;;;23.58;3.40;;;7.40;99.90;;;;;;5014141;28;20050;-80
2021/12/19 09:18:53;;;;;;;20.60;3.97;;;7.40;99.90;;;;;;4978538;28;265363;-81
2021/12/19 09:21:19;;;;;;;16.20;3.40;;;7.40;99.90;;;;;;5003367;28;20046;-81
2021/12/19 09:23:46;;;;;;;21.60;3.38;;;7.40;99.90;;;;;;5007398;28;20363;-81
2021/12/19 09:26:13;;;;;;;23.75;3.65;;;7.40;99.90;;;;;;5001559;28;271957;-80
2021/12/19 09:28:39;;;;;;;17.90;3.53;;;7.40;99.90;;;;;;5016114;28;20061;-80
2021/12/19 09:31:06;;;;;;;20.42;3.60;;;7.50;99.90;;;;;;4984537;28;147471;-80
2021/12/19 09:33:32;;;;;;;22.88;3.72;;;7.50;99.90;;;;;;4997166;28;20061;-79
2021/12/19 09:35:59;;;;;;;22.48;3.67;;;7.50;99.90;;;;;;4995241;28;270825;-80
2021/12/19 09:38:27;;;;;;;18.00;3.80;;;7.50;99.90;;;;;;5000272;28;20060;-82
2021/12/19 09:41:00;;;;;;;20.67;3.63;;;7.50;99.90;;;;;;4973371;28;152870;-81
2021/12/19 09:43:42;;;;;;;15.93;3.35;;;7.50;99.90;;;;;;4999543;28;20050;-81
2021/12/19 09:46:14;;;;;;;18.77;3.33;;;7.50;99.90;;;;;;4985307;28;58002;-81
2021/12/19 09:48:41;;;;;;;19.20;3.63;;;7.50;99.90;;;;;;5010293;28;20062;-80
2021/12/19 09:51:12;;;;;;;26.33;3.85;;;7.50;99.90;;;;;;4998260;28;180430;-80
2021/12/19 09:53:40;;;;;;;21.48;3.67;;;7.50;99.90;;;;;;5015788;28;20054;-79
2021/12/19 09:56:07;;;;;;;14.45;3.05;;;7.50;99.90;;;;;;4994949;28;262384;-80
2021/12/19 09:58:34;;;;;;;16.83;3.10;;;7.50;99.90;;;;;;4998122;28;20404;-81
2021/12/19 10:01:06;;;;;;;19.98;3.10;;;7.50;99.90;;;;;;4991523;28;143000;-80
2021/12/19 10:03:32;;;;;;;17.05;3.35;;;7.50;99.90;;;;;;5002484;28;20057;-80
2021/12/19 10:06:20;;;;;;;18.95;3.08;;;7.60;99.90;;;;;;4988024;28;143334;-81
2021/12/19 10:08:49;;;;;;;21.80;3.55;;;7.60;99.90;;;;;;4997963;28;20064;-81
2021/12/19 10:11:31;;;;;;;19.08;3.25;;;7.60;99.90;;;;;;5009768;28;20057;-80
2021/12/19 10:13:58;;;;;;;17.25;3.75;;;7.70;99.90;;;;;;4997815;28;259113;-81
2021/12/19 10:16:26;;;;;;;18.55;3.45;;;7.60;99.90;;;;;;4998368;28;20054;-80
2021/12/19 10:18:57;;;;;;;17.75;3.40;;;7.60;99.90;;;;;;4969035;28;259856;-81
2021/12/19 10:21:23;;;;;;;18.38;3.75;;;7.60;99.90;;;;;;4989218;28;20610;-80
2021/12/19 10:23:50;;;;;;;18.58;3.55;;;7.60;99.90;;;;;;4979585;28;254199;-79
2021/12/19 10:26:16;;;;;;;16.40;3.40;;;7.60;99.90;;;;;;4995937;28;20046;-79
2021/12/19 10:28:54;;;;;;;19.25;4.00;;;7.70;99.90;;;;;;5014976;28;20479;-80
2021/12/19 10:31:22;;;;;;;21.58;4.25;;;7.70;99.90;;;;;;4994117;28;20060;-80
2021/12/19 10:33:48;;;;;;;20.60;4.13;;;7.60;99.90;;;;;;4989268;28;254410;-81
2021/12/19 10:36:16;;;;;;;20.90;3.90;;;7.60;99.90;;;;;;5038452;28;20047;-81
2021/12/19 10:38:48;;;;;;;18.48;3.90;;;7.70;99.90;;;;;;5016187;28;20664;-80
2021/12/19 10:41:21;;;;;;;22.13;3.78;;;7.70;99.90;;;;;;5014652;28;20038;-81
2021/12/19 10:44:10;;;;;;;20.32;4.04;;;7.70;99.90;;;;;;5027883;28;261607;-81
2021/12/19 10:46:40;;;;;;;20.42;3.63;;;7.70;99.90;;;;;;5002344;28;20118;-80
2021/12/19 10:49:22;;;;;;;21.00;3.97;;;7.80;99.90;;;;;;4989097;28;258537;-80
2021/12/19 10:51:50;;;;;;;22.23;4.28;;;7.70;99.90;;;;;;5026509;28;20056;-79
2021/12/19 10:54:16;;;;;;;25.88;4.22;;;7.80;99.90;;;;;;4988129;28;205640;-78
2021/12/19 10:56:43;;;;;;;27.20;4.85;;;7.80;99.90;;;;;;5019206;28;20949;-79
2021/12/19 10:59:14;;;;;;;23.13;3.75;;;7.90;99.90;;;;;;5005268;28;258617;-79
2021/12/19 11:01:48;;;;;;;25.65;4.70;;;7.90;99.90;;;;;;5031191;28;20050;-78
2021/12/19 11:04:18;;;;;;;18.58;4.18;;;7.90;99.90;;;;;;4996739;28;248858;-80
2021/12/19 11:06:59;;;;;;;22.67;4.25;;;7.90;99.90;;;;;;5008798;28;20060;-80
2021/12/19 11:09:37;;;;;;;26.05;3.75;;;8.00;99.90;;;;;;5013624;28;271336;-79
2021/12/19 11:12:10;;;;;;;27.25;4.25;;;7.90;99.90;;;;;;5032671;28;20053;-80
2021/12/19 11:14:38;;;;;;;24.52;4.57;;;7.90;99.90;;;;;;5010289;28;267065;-80
2021/12/19 11:17:06;;;;;;;26.60;4.30;;;8.00;99.90;;;;;;5022362;28;20053;-80
2021/12/19 11:19:33;;;;;;;22.83;3.58;;;8.00;99.90;;;;;;5025256;28;172289;-79
2021/12/19 11:22:00;;;;;;;26.23;3.50;;;7.90;99.90;;;;;;5021157;28;20045;-80
2021/12/19 11:24:26;;;;;;;20.70;3.63;;;7.90;99.90;;;;;;5016373;28;136281;-80
2021/12/19 11:26:59;;;;;;;20.40;3.53;;;7.90;99.90;;;;;;5048925;28;20049;-78
2021/12/19 11:29:26;;;;;;;24.38;3.85;;;7.90;99.90;;;;;;5021727;28;126508;-80
2021/12/19 11:32:00;;;;;;;22.38;3.80;;;7.90;99.90;;;;;;5035734;28;20060;-79
2021/12/19 11:35:15;;;;;;;18.52;3.28;;;7.90;99.90;;;;;;4997785;28;66544;-81
2021/12/19 11:37:46;;;;;;;22.60;3.55;;;8.00;99.90;;;;;;4961100;28;20051;-81
2021/12/19 11:40:17;;;;;;;21.45;3.72;;;8.00;99.90;;;;;;4949901;28;30164;-80
2021/12/19 11:42:44;;;;;;;21.05;3.75;;;8.00;99.90;;;;;;4973644;28;20054;-79
2021/12/19 11:45:28;;;;;;;17.67;3.60;;;8.00;99.90;;;;;;4959153;28;108134;-80
2021/12/19 11:48:02;;;;;;;20.90;3.40;;;7.90;99.90;;;;;;4963679;28;20050;-80
2021/12/19 11:50:34;;;;;;;18.88;3.17;;;7.90;99.90;;;;;;4954628;28;126439;-79
2021/12/19 11:53:09;;;;;;;23.45;3.90;;;7.90;99.90;;;;;;4955674;28;20194;-79
2021/12/19 11:55:39;;;;;;;24.90;3.45;;;7.90;99.90;;;;;;4944651;28;239759;-79
2021/12/19 11:58:08;;;;;;;18.83;3.65;;;7.90;99.90;;;;;;4954379;28;20042;-80
2021/12/19 12:00:34;;;;;;;19.95;3.08;;;8.00;99.90;;;;;;4939320;28;279280;-80
2021/12/19 12:03:12;;;;;;;20.48;3.33;;;8.00;99.90;;;;;;4958685;28;20051;-79
2021/12/19 12:05:39;;;;;;;24.70;3.15;;;8.00;99.90;;;;;;4931273;28;147073;-78
2021/12/19 12:08:06;;;;;;;20.92;3.47;;;8.00;99.90;;;;;;4964545;28;20053;-79
2021/12/19 12:10:48;;;;;;;19.42;3.13;;;8.00;99.90;;;;;;5029049;28;20044;-78
2021/12/19 12:13:41;;;;;;;18.75;3.50;;;8.00;99.90;;;;;;5041631;28;20050;-79
2021/12/19 12:16:27;;;;;;;18.73;3.45;;;8.00;99.90;;;;;;5006833;28;115235;-80
2021/12/19 12:19:05;;;;;;;23.08;3.30;;;8.00;99.90;;;;;;4981103;28;266676;-79
2021/12/19 12:21:41;;;;;;;23.13;3.75;;;8.00;99.90;;;;;;4999259;28;20038;-79
2021/12/19 12:24:16;;;;;;;22.55;3.50;;;8.00;99.90;;;;;;4994082;28;263306;-80
2021/12/19 12:26:59;;;;;;;21.10;3.28;;;8.00;99.90;;;;;;5039357;28;20126;-79
2021/12/19 12:29:25;;;;;;;34.03;3.42;;;8.10;99.90;;;;;;5007665;28;120004;-80
2021/12/19 12:31:53;;;;;;;20.67;3.03;;;8.00;99.90;;;;;;4986011;28;20825;-79
2021/12/19 12:34:20;;;;;;;23.80;3.80;;;8.10;99.90;;;;;;5004144;28;125189;-79
2021/12/19 12:36:46;;;;;;;27.60;3.38;;;8.10;99.90;;;;;;5015064;28;20355;-79
2021/12/19 12:39:25;;;;;;;26.73;3.78;;;8.10;99.90;;;;;;5005916;28;34003;-80
2021/12/19 12:42:02;;;;;;;22.55;3.65;;;8.10;99.90;;;;;;5026933;28;20053;-82
2021/12/19 12:44:29;;;;;;;23.40;3.30;;;8.10;99.90;;;;;;5004685;28;273443;-80
2021/12/19 12:46:55;;;;;;;27.52;3.40;;;8.10;99.90;;;;;;5016924;28;20065;-81
2021/12/19 12:49:26;;;;;;;18.73;3.45;;;8.10;99.90;;;;;;4979063;28;205482;-82
2021/12/19 12:51:59;;;;;;;21.23;3.47;;;8.10;99.90;;;;;;5018845;28;20057;-80
2021/12/19 12:54:36;;;;;;;23.08;3.55;;;8.10;99.90;;;;;;4990681;28;36277;-80
2021/12/19 12:57:07;;;;;;;27.23;3.78;;;8.10;99.90;;;;;;5005495;28;20082;-79
2021/12/19 12:59:39;;;;;;;22.33;3.13;;;8.10;99.90;;;;;;5001699;28;258861;-79
2021/12/19 13:02:14;;;;;;;26.23;3.95;;;8.20;99.90;;;;;;5019657;28;20132;-79
2021/12/19 13:04:46;;;;;;;26.20;3.72;;;8.10;99.90;;;;;;4984195;28;157998;-80
2021/12/19 13:07:17;;;;;;;21.98;3.70;;;8.10;99.90;;;;;;5015750;28;20054;-79
2021/12/19 13:09:44;;;;;;;27.75;4.18;;;8.10;99.90;;;;;;5010472;28;77683;-80
2021/12/19 13:12:20;;;;;;;22.90;3.35;;;8.20;99.90;;;;;;5012051;28;20061;-80
2021/12/19 13:14:58;;;;;;;24.17;3.38;;;8.20;99.90;;;;;;5000519;28;80953;-81
2021/12/19 13:17:31;;;;;;;24.40;3.58;;;8.20;99.90;;;;;;5008461;28;20053;-80
2021/12/19 13:20:06;;;;;;;28.38;4.57;;;8.20;99.90;;;;;;5002598;28;88358;-79
2021/12/19 13:22:35;;;;;;;31.88;4.38;;;8.20;99.90;;;;;;5000336;28;20080;-79
2021/12/19 13:25:16;;;;;;;26.75;3.88;;;8.20;99.90;;;;;;4991952;28;236406;-80
2021/12/19 13:27:46;;;;;;;25.38;3.35;;;8.20;99.90;;;;;;5006795;28;20057;-80
2021/12/19 13:30:20;;;;;;;26.23;3.42;;;8.20;99.90;;;;;;4991428;28;217067;-81
2021/12/19 13:33:05;;;;;;;24.35;3.63;;;8.20;99.90;;;;;;5001655;28;20051;-80
2021/12/19 13:35:35;;;;;;;24.67;3.67;;;8.20;99.90;;;;;;5002176;28;253592;-80
2021/12/19 13:38:19;;;;;;;26.42;3.90;;;8.10;99.90;;;;;;5005810;28;20368;-80
2021/12/19 13:40:58;;;;;;;27.98;3.60;;;8.20;99.90;;;;;;5019781;28;264510;-81
2021/12/19 13:43:28;;;;;;;;;;;8.20;99.90;;;;;;5009406;28;20049;-81
2021/12/19 13:46:07;;;;;;;34.22;3.92;;;8.20;99.90;;;;;;5015158;28;58660;-80
2021/12/19 13:48:42;;;;;;;25.25;4.00;;;8.20;99.90;;;;;;5015342;28;20287;-80
2021/12/19 13:51:14;;;;;;;21.30;3.50;;;8.20;99.90;;;;;;5010562;28;96457;-80
2021/12/19 13:53:46;;;;;;;25.73;3.72;;;8.10;99.90;;;;;;5010616;28;20798;-79
2021/12/19 13:56:14;;;;;;;29.77;3.65;;;8.20;99.90;;;;;;5015960;28;45681;-81
2021/12/19 13:58:52;;;;;;;29.35;3.78;;;8.20;99.90;;;;;;5018428;23;21522;-70